Aviation Digital Data Service (ADDS)

Output produced by METARs form (1707 UTC 21 September 2019)
found at http://aviationweather.gov/metar/data/
 
KCXO 211653Z 11008KT 10SM SCT025 BKN031 BKN042 30/24 A3011 RMK AO2 SLP191 T03000239
KCXO 211635Z 11008KT 10SM FEW020 SCT028 BKN042 29/24 A3011 RMK AO2 T02940239
KCXO 211419Z 2114/2212 10004KT P6SM SCT006 OVC025 
     FM211600 14011KT P6SM VCSH SCT025 BKN035 
     FM220300 13005KT P6SM SCT250 
     FM220900 16003KT P6SM BKN015